createdAt,value
2019-01-23T00:00:24.663Z,57.97
2019-01-23T00:01:28.259Z,58.04
2019-01-23T00:02:31.947Z,58.05
2019-01-23T00:03:35.645Z,58.02
2019-01-23T00:04:39.233Z,58.09
2019-01-23T00:05:42.784Z,58.22
2019-01-23T00:06:46.474Z,58.23
2019-01-23T00:07:50.112Z,58.16
2019-01-23T00:08:53.641Z,58.18
2019-01-23T00:09:57.183Z,58.16
2019-01-23T00:11:00.780Z,58.25
2019-01-23T00:12:04.752Z,58.24
2019-01-23T00:13:08.490Z,58.26
2019-01-23T00:14:12.086Z,58.30
2019-01-23T00:15:15.968Z,58.46
2019-01-23T00:16:19.598Z,58.44
2019-01-23T00:17:23.177Z,58.49
2019-01-23T00:18:26.848Z,58.50
2019-01-23T00:19:30.543Z,58.54
2019-01-23T00:20:34.144Z,58.55
2019-01-23T00:21:37.720Z,58.61
2019-01-23T00:22:41.324Z,58.66
2019-01-23T00:23:45.019Z,58.67
2019-01-23T00:24:48.703Z,58.82
2019-01-23T00:25:52.326Z,58.83
2019-01-23T00:26:55.896Z,58.98
2019-01-23T00:27:59.705Z,59.05
2019-01-23T00:29:03.534Z,59.13
2019-01-23T00:30:10.104Z,59.09
2019-01-23T00:31:13.670Z,59.12
2019-01-23T00:32:17.372Z,59.18
2019-01-23T00:33:20.960Z,59.18
2019-01-23T00:34:24.608Z,59.21
2019-01-23T00:35:28.174Z,59.28
2019-01-23T00:36:31.795Z,59.24
2019-01-23T00:37:35.601Z,59.33
2019-01-23T00:38:39.152Z,59.43
2019-01-23T00:39:42.779Z,59.55
2019-01-23T00:40:46.324Z,59.65
2019-01-23T00:41:49.940Z,59.57
2019-01-23T00:42:53.483Z,59.55
2019-01-23T00:43:57.089Z,59.59
2019-01-23T00:45:00.728Z,59.65
2019-01-23T00:46:04.414Z,59.64
2019-01-23T00:47:08.119Z,59.78
2019-01-23T00:48:11.836Z,59.85
2019-01-23T00:49:15.448Z,59.89
2019-01-23T00:50:19.103Z,59.85
2019-01-23T00:51:22.787Z,59.78
2019-01-23T00:52:26.416Z,59.78
2019-01-23T00:53:29.967Z,59.81
2019-01-23T00:54:33.760Z,59.83
2019-01-23T00:55:37.325Z,59.83
2019-01-23T00:56:40.848Z,59.85
2019-01-23T00:57:44.446Z,59.87
2019-01-23T00:58:49.239Z,59.91
2019-01-23T00:59:53.094Z,60.00
2019-01-23T01:00:56.760Z,59.95
2019-01-23T01:02:00.356Z,60.02
2019-01-23T01:03:04.238Z,60.23
2019-01-23T01:04:07.942Z,60.35
2019-01-23T01:05:11.945Z,60.40
2019-01-23T01:06:15.770Z,60.46
2019-01-23T01:07:19.451Z,60.47
2019-01-23T01:08:23.076Z,60.44
2019-01-23T01:09:26.628Z,60.52
2019-01-23T01:10:30.285Z,60.46
2019-01-23T01:11:34.003Z,60.48
2019-01-23T01:12:37.728Z,60.54
2019-01-23T01:13:41.411Z,60.60
2019-01-23T01:14:45.309Z,60.59
2019-01-23T01:15:48.953Z,60.55
2019-01-23T01:16:52.665Z,60.49
2019-01-23T01:17:57.063Z,60.37
2019-01-23T01:19:00.634Z,60.31
2019-01-23T01:20:07.638Z,60.37
2019-01-23T01:21:11.412Z,60.46
2019-01-23T01:22:15.298Z,60.52
2019-01-23T01:23:18.981Z,60.57
2019-01-23T01:24:22.523Z,60.50
2019-01-23T01:25:26.132Z,60.46
2019-01-23T01:26:29.999Z,60.47
2019-01-23T01:27:33.954Z,60.54
2019-01-23T01:28:37.615Z,60.57
2019-01-23T01:29:41.466Z,60.52
2019-01-23T01:30:45.124Z,60.49
2019-01-23T01:31:48.817Z,60.49
2019-01-23T01:32:52.609Z,60.44
2019-01-23T01:33:56.151Z,60.47
2019-01-23T01:34:59.977Z,60.55
2019-01-23T01:36:04.200Z,60.57
2019-01-23T01:37:07.940Z,60.58
2019-01-23T01:38:11.745Z,60.57
2019-01-23T01:39:15.441Z,60.55
2019-01-23T01:40:20.021Z,60.54
2019-01-23T01:41:23.553Z,60.63
2019-01-23T01:42:27.208Z,60.76
2019-01-23T01:43:30.753Z,60.87
2019-01-23T01:44:34.410Z,61.03
2019-01-23T01:45:38.023Z,60.97
2019-01-23T01:46:41.591Z,60.89
2019-01-23T01:47:45.449Z,60.87
2019-01-23T01:48:49.003Z,60.88
2019-01-23T01:49:52.537Z,60.87
2019-01-23T01:50:56.074Z,60.89
2019-01-23T01:51:59.611Z,60.99
2019-01-23T01:53:03.346Z,60.95
2019-01-23T01:54:06.885Z,60.78
2019-01-23T01:55:11.103Z,60.65
2019-01-23T01:56:14.842Z,60.73
2019-01-23T01:57:18.788Z,60.80
2019-01-23T01:58:22.381Z,60.81
2019-01-23T01:59:25.932Z,60.81
2019-01-23T02:00:29.669Z,61.05
2019-01-23T02:01:33.230Z,61.04
2019-01-23T02:02:36.940Z,60.93
2019-01-23T02:03:40.515Z,60.87
2019-01-23T02:04:44.066Z,60.89
2019-01-23T02:05:47.770Z,60.98
2019-01-23T02:06:51.319Z,61.09
2019-01-23T02:07:55.037Z,60.93
2019-01-23T02:08:58.634Z,60.83
2019-01-23T02:10:02.327Z,60.97
2019-01-23T02:11:05.986Z,60.98
2019-01-23T02:12:09.815Z,61.14
2019-01-23T02:13:13.521Z,61.17
2019-01-23T02:14:17.396Z,61.19
2019-01-23T02:15:21.642Z,61.20
2019-01-23T02:16:25.398Z,61.18
2019-01-23T02:17:29.225Z,61.30
2019-01-23T02:18:32.760Z,61.28
2019-01-23T02:19:36.336Z,61.33
2019-01-23T02:20:40.040Z,61.33
2019-01-23T02:21:43.596Z,61.42
2019-01-23T02:22:47.332Z,61.51
2019-01-23T02:23:50.954Z,61.47
2019-01-23T02:24:54.647Z,61.47
2019-01-23T02:25:58.202Z,61.50
2019-01-23T02:27:01.766Z,61.57
2019-01-23T02:28:05.624Z,61.51
2019-01-23T02:29:09.795Z,61.53
2019-01-23T02:30:18.666Z,61.56
2019-01-23T02:31:22.212Z,61.50
2019-01-23T02:32:25.919Z,61.48
2019-01-23T02:33:29.481Z,61.47
2019-01-23T02:34:33.033Z,61.47
2019-01-23T02:35:36.744Z,61.56
2019-01-23T02:36:40.446Z,61.53
2019-01-23T02:37:44.056Z,61.55
2019-01-23T02:38:47.728Z,61.62
2019-01-23T02:39:51.335Z,61.69
2019-01-23T02:40:54.981Z,61.74
2019-01-23T02:41:58.658Z,61.74
2019-01-23T02:43:02.341Z,61.70
2019-01-23T02:44:06.026Z,61.63
2019-01-23T02:45:09.741Z,61.58
2019-01-23T02:46:13.342Z,61.67
2019-01-23T02:47:17.027Z,61.60
2019-01-23T02:48:20.658Z,61.59
2019-01-23T02:49:24.189Z,61.52
2019-01-23T02:50:28.004Z,61.39
2019-01-23T02:51:31.674Z,61.44
2019-01-23T02:52:35.309Z,61.39
2019-01-23T02:53:38.908Z,61.31
2019-01-23T02:54:42.521Z,61.52
2019-01-23T02:55:46.266Z,61.70
2019-01-23T02:56:49.864Z,61.74
2019-01-23T02:57:53.410Z,61.79
2019-01-23T02:58:57.040Z,61.83
2019-01-23T03:00:00.628Z,61.83
2019-01-23T03:01:04.301Z,61.97
2019-01-23T03:02:08.029Z,62.11
2019-01-23T03:03:11.753Z,62.16
2019-01-23T03:04:15.435Z,62.05
2019-01-23T03:05:19.824Z,62.12
2019-01-23T03:06:23.532Z,62.14
2019-01-23T03:07:27.210Z,62.15
2019-01-23T03:08:30.907Z,62.11
2019-01-23T03:09:34.545Z,62.06
2019-01-23T03:10:38.190Z,62.03
2019-01-23T03:11:41.903Z,61.96
2019-01-23T03:12:45.971Z,61.92
2019-01-23T03:13:49.784Z,61.92
2019-01-23T03:14:53.322Z,62.00
2019-01-23T03:15:56.973Z,62.06
2019-01-23T03:17:00.654Z,62.08
2019-01-23T03:18:04.374Z,62.08
2019-01-23T03:19:08.262Z,62.10
2019-01-23T03:20:15.472Z,62.15
2019-01-23T03:21:19.130Z,62.19
2019-01-23T03:22:22.931Z,62.29
2019-01-23T03:23:26.813Z,62.42
2019-01-23T03:24:30.517Z,62.33
2019-01-23T03:25:34.763Z,62.29
2019-01-23T03:26:38.395Z,62.14
2019-01-23T03:27:42.108Z,62.08
2019-01-23T03:28:48.425Z,62.02
2019-01-23T03:29:52.069Z,62.04
2019-01-23T03:30:55.891Z,62.26
2019-01-23T03:32:00.431Z,62.47
2019-01-23T03:33:04.179Z,62.48
2019-01-23T03:34:07.789Z,62.32
2019-01-23T03:35:11.557Z,62.20
2019-01-23T03:36:15.244Z,62.03
2019-01-23T03:37:18.857Z,61.80
2019-01-23T03:38:22.632Z,61.62
2019-01-23T03:39:26.226Z,61.58
2019-01-23T03:40:29.824Z,61.43
2019-01-23T03:41:33.611Z,61.48
2019-01-23T03:42:37.236Z,61.42
2019-01-23T03:43:40.787Z,61.22
2019-01-23T03:44:44.561Z,61.10
2019-01-23T03:45:48.086Z,61.04
2019-01-23T03:46:51.950Z,60.76
2019-01-23T03:47:55.569Z,60.59
2019-01-23T03:48:59.398Z,60.50
2019-01-23T03:50:03.072Z,60.52
2019-01-23T03:51:06.812Z,60.48
2019-01-23T03:52:10.883Z,60.34
2019-01-23T03:53:14.669Z,60.33
2019-01-23T03:54:18.409Z,60.19
2019-01-23T03:55:23.021Z,60.17
2019-01-23T03:56:26.782Z,59.82
2019-01-23T03:57:30.746Z,59.57
2019-01-23T03:58:34.813Z,59.46
2019-01-23T03:59:38.569Z,58.90
2019-01-23T04:00:42.332Z,58.60
2019-01-23T04:01:46.218Z,58.57
2019-01-23T04:02:51.789Z,58.26
2019-01-23T04:03:56.619Z,58.12
2019-01-23T04:05:00.645Z,57.93
2019-01-23T04:06:04.635Z,57.77
2019-01-23T04:07:08.610Z,57.55
2019-01-23T04:08:13.072Z,57.50
2019-01-23T04:09:17.531Z,57.33
2019-01-23T04:10:22.960Z,57.02
2019-01-23T04:11:26.562Z,56.96
2019-01-23T04:12:30.271Z,56.67
2019-01-23T04:13:34.069Z,56.66
2019-01-23T04:14:37.731Z,56.75
2019-01-23T04:15:41.365Z,56.62
2019-01-23T04:16:45.094Z,56.31
2019-01-23T04:17:48.914Z,56.32
2019-01-23T04:18:52.376Z,56.01
2019-01-23T04:19:56.312Z,55.98
2019-01-23T04:21:00.155Z,55.92
2019-01-23T04:22:03.919Z,56.03
2019-01-23T04:23:07.674Z,56.06
2019-01-23T04:24:11.267Z,55.80
2019-01-23T04:25:15.155Z,55.75
2019-01-23T04:26:18.833Z,55.62
2019-01-23T04:27:22.325Z,55.58
2019-01-23T04:28:26.134Z,55.52
2019-01-23T04:29:29.826Z,55.45
2019-01-23T04:30:33.450Z,55.40
2019-01-23T04:31:37.179Z,55.33
2019-01-23T04:32:40.704Z,55.30
2019-01-23T04:33:44.434Z,55.10
2019-01-23T04:34:48.053Z,55.00
2019-01-23T04:35:51.627Z,55.03
2019-01-23T04:36:55.128Z,54.96
2019-01-23T04:37:58.668Z,54.83
2019-01-23T04:39:02.157Z,54.77
2019-01-23T04:40:11.170Z,54.78
2019-01-23T04:41:15.292Z,54.81
2019-01-23T04:42:19.025Z,54.97
2019-01-23T04:43:22.542Z,55.00
2019-01-23T04:44:26.040Z,55.20
2019-01-23T04:45:29.623Z,54.95
2019-01-23T04:46:33.150Z,54.92
2019-01-23T04:47:36.834Z,55.03
2019-01-23T04:48:40.392Z,54.86
2019-01-23T04:49:44.104Z,54.96
2019-01-23T04:50:51.795Z,54.87
2019-01-23T04:51:56.901Z,54.83
2019-01-23T04:53:07.736Z,54.71
2019-01-23T04:54:12.051Z,54.67
2019-01-23T04:55:15.620Z,54.74
2019-01-23T04:56:19.234Z,54.66
2019-01-23T04:57:22.767Z,54.73
2019-01-23T04:58:26.349Z,54.64
2019-01-23T04:59:29.865Z,54.68
2019-01-23T05:00:33.508Z,54.67
2019-01-23T05:01:37.027Z,54.81
2019-01-23T05:02:40.622Z,54.76
2019-01-23T05:03:44.233Z,54.84
2019-01-23T05:04:47.804Z,54.82
2019-01-23T05:05:51.366Z,54.84
2019-01-23T05:06:54.939Z,54.91
2019-01-23T05:07:58.423Z,54.89
2019-01-23T05:09:02.031Z,54.86
2019-01-23T05:10:06.760Z,54.91
2019-01-23T05:11:10.334Z,54.85
2019-01-23T05:12:13.822Z,54.91
2019-01-23T05:13:17.319Z,55.00
2019-01-23T05:14:20.925Z,55.07
2019-01-23T05:15:24.493Z,55.23
2019-01-23T05:16:27.975Z,55.27
2019-01-23T05:17:31.552Z,55.47
2019-01-23T05:18:35.067Z,55.74
2019-01-23T05:19:38.701Z,55.75
2019-01-23T05:20:42.183Z,55.97
2019-01-23T05:21:45.683Z,56.04
2019-01-23T05:22:49.309Z,53.41
2019-01-23T05:23:52.871Z,53.26
2019-01-23T05:24:56.377Z,53.22
2019-01-23T05:25:59.913Z,52.66
2019-01-23T05:27:03.559Z,53.72
2019-01-23T05:28:07.290Z,53.12
2019-01-23T05:29:10.761Z,52.64
2019-01-23T05:30:19.759Z,52.47
2019-01-23T05:31:23.321Z,52.12
2019-01-23T05:32:26.815Z,51.86
2019-01-23T05:33:30.336Z,51.38
2019-01-23T05:34:33.833Z,51.22
2019-01-23T05:35:37.665Z,50.58
2019-01-23T05:36:41.361Z,49.34
2019-01-23T05:37:44.875Z,49.24
2019-01-23T05:38:48.454Z,49.24
2019-01-23T05:39:51.935Z,49.58
2019-01-23T05:40:55.508Z,50.42
2019-01-23T05:41:59.039Z,53.38
2019-01-23T05:43:02.600Z,53.85
2019-01-23T05:44:06.132Z,53.67
2019-01-23T05:45:12.407Z,52.90
2019-01-23T05:46:16.093Z,51.47
2019-01-23T05:47:19.572Z,49.73
2019-01-23T05:48:23.065Z,49.46
2019-01-23T05:49:26.707Z,49.20
2019-01-23T05:50:30.237Z,50.01
2019-01-23T05:51:33.995Z,50.93
2019-01-23T05:52:37.652Z,51.14
2019-01-23T05:53:41.361Z,50.83
2019-01-23T05:54:44.895Z,50.80
2019-01-23T05:55:48.523Z,50.56
2019-01-23T05:56:52.083Z,50.56
2019-01-23T05:57:55.594Z,50.17
2019-01-23T05:58:59.084Z,49.21
2019-01-23T06:00:02.968Z,48.12
2019-01-23T06:01:06.653Z,47.08
2019-01-23T06:02:10.170Z,46.81
2019-01-23T06:03:13.656Z,44.98
2019-01-23T06:04:17.217Z,44.22
2019-01-23T06:05:20.983Z,43.87
2019-01-23T06:06:24.528Z,44.18
2019-01-23T06:07:28.029Z,43.81
2019-01-23T06:08:31.524Z,43.99
2019-01-23T06:09:35.104Z,44.23
2019-01-23T06:10:38.609Z,44.58
2019-01-23T06:11:42.205Z,44.88
2019-01-23T06:12:45.807Z,45.06
2019-01-23T06:13:49.315Z,45.35
2019-01-23T06:14:52.813Z,45.57
2019-01-23T06:15:56.455Z,45.94
2019-01-23T06:17:00.045Z,46.16
2019-01-23T06:18:04.032Z,46.47
2019-01-23T06:19:07.695Z,46.73
2019-01-23T06:20:19.444Z,46.93
2019-01-23T06:21:23.034Z,47.10
2019-01-23T06:22:26.599Z,47.35
2019-01-23T06:23:30.197Z,47.53
2019-01-23T06:24:33.868Z,47.67
2019-01-23T06:25:37.392Z,47.91
2019-01-23T06:26:40.944Z,47.96
2019-01-23T06:27:44.551Z,48.04
2019-01-23T06:28:48.111Z,48.00
2019-01-23T06:29:51.617Z,47.89
2019-01-23T06:30:55.148Z,47.60
2019-01-23T06:31:58.615Z,47.47
2019-01-23T06:33:02.142Z,47.39
2019-01-23T06:34:05.702Z,47.31
2019-01-23T06:35:09.431Z,47.26
2019-01-23T06:36:13.003Z,47.13
2019-01-23T06:37:16.662Z,46.89
2019-01-23T06:38:20.156Z,46.96
2019-01-23T06:39:23.736Z,46.93
2019-01-23T06:40:27.306Z,46.88
2019-01-23T06:41:30.780Z,46.91
2019-01-23T06:42:34.307Z,46.89
2019-01-23T06:43:37.882Z,46.87
2019-01-23T06:44:41.367Z,46.91
2019-01-23T06:45:44.889Z,47.02
2019-01-23T06:46:48.379Z,47.01
2019-01-23T06:47:52.003Z,46.89
2019-01-23T06:48:55.677Z,47.04
2019-01-23T06:49:59.184Z,47.18
2019-01-23T06:51:02.670Z,47.34
2019-01-23T06:52:06.318Z,47.41
2019-01-23T06:53:13.941Z,47.51
2019-01-23T06:54:15.056Z,47.68
2019-01-23T06:55:18.805Z,47.87
2019-01-23T06:56:22.293Z,47.92
2019-01-23T06:57:25.898Z,48.08
2019-01-23T06:58:29.441Z,48.20
2019-01-23T06:59:33.068Z,48.23
2019-01-23T07:00:36.646Z,48.24
2019-01-23T07:01:40.171Z,48.24
2019-01-23T07:02:43.782Z,48.17
2019-01-23T07:03:47.275Z,48.19
2019-01-23T07:04:50.871Z,48.11
2019-01-23T07:05:54.418Z,48.12
2019-01-23T07:06:58.062Z,48.10
2019-01-23T07:08:01.605Z,48.13
2019-01-23T07:09:07.381Z,48.16
2019-01-23T07:10:14.246Z,48.17
2019-01-23T07:11:17.801Z,48.32
2019-01-23T07:12:21.294Z,48.45
2019-01-23T07:13:24.859Z,48.56
2019-01-23T07:14:28.343Z,48.63
2019-01-23T07:15:31.874Z,48.69
2019-01-23T07:16:35.452Z,48.82
2019-01-23T07:17:38.991Z,48.90
2019-01-23T07:18:42.517Z,49.00
2019-01-23T07:19:46.011Z,49.08
2019-01-23T07:20:49.578Z,49.21
2019-01-23T07:21:53.082Z,49.31
2019-01-23T07:22:56.661Z,49.34
2019-01-23T07:24:00.180Z,49.36
2019-01-23T07:25:04.803Z,49.33
2019-01-23T07:26:08.388Z,49.28
2019-01-23T07:27:11.918Z,49.31
2019-01-23T07:28:15.408Z,49.18
2019-01-23T07:29:18.876Z,49.20
2019-01-23T07:30:27.647Z,49.17
2019-01-23T07:31:31.146Z,49.16
2019-01-23T07:32:34.651Z,49.17
2019-01-23T07:33:38.242Z,49.23
2019-01-23T07:34:44.669Z,49.28
2019-01-23T07:35:48.181Z,49.39
2019-01-23T07:36:51.802Z,49.41
2019-01-23T07:37:55.419Z,49.51
2019-01-23T07:38:58.950Z,49.63
2019-01-23T07:40:02.577Z,49.71
2019-01-23T07:41:06.246Z,49.81
2019-01-23T07:42:09.784Z,49.87
2019-01-23T07:43:13.321Z,49.97
2019-01-23T07:44:16.955Z,49.97
2019-01-23T07:45:23.013Z,49.96
2019-01-23T07:46:26.577Z,50.01
2019-01-23T07:47:30.146Z,50.03
2019-01-23T07:48:33.688Z,50.05
2019-01-23T07:49:37.189Z,49.95
2019-01-23T07:50:40.795Z,49.79
2019-01-23T07:51:44.330Z,49.82
2019-01-23T07:52:47.919Z,49.69
2019-01-23T07:53:51.400Z,49.65
2019-01-23T07:54:54.887Z,49.71
2019-01-23T07:55:58.419Z,49.75
2019-01-23T07:57:01.958Z,49.76
2019-01-23T07:58:05.657Z,49.76
2019-01-23T07:59:09.988Z,49.81
2019-01-23T08:00:18.215Z,49.93
2019-01-23T08:01:21.716Z,49.99
2019-01-23T08:02:25.350Z,50.08
2019-01-23T08:03:28.924Z,50.13
2019-01-23T08:04:32.415Z,50.21
2019-01-23T08:05:35.980Z,50.29
2019-01-23T08:06:39.697Z,50.33
2019-01-23T08:07:43.274Z,50.40
2019-01-23T08:08:46.842Z,50.43
2019-01-23T08:09:50.375Z,50.43
2019-01-23T08:10:53.891Z,50.29
2019-01-23T08:11:57.594Z,50.25
2019-01-23T08:13:01.208Z,50.08
2019-01-23T08:14:05.521Z,50.04
2019-01-23T08:15:20.626Z,50.04
2019-01-23T08:16:24.148Z,49.95
2019-01-23T08:17:32.693Z,49.97
2019-01-23T08:18:32.970Z,49.95
2019-01-23T08:19:36.506Z,49.92
2019-01-23T08:20:40.072Z,49.95
2019-01-23T08:21:43.652Z,50.02
2019-01-23T08:22:47.278Z,50.07
2019-01-23T08:23:50.798Z,50.09
2019-01-23T08:24:54.283Z,50.12
2019-01-23T08:25:57.763Z,50.20
2019-01-23T08:27:07.028Z,50.34
2019-01-23T08:28:06.614Z,50.42
2019-01-23T08:29:12.519Z,50.47
2019-01-23T08:30:21.379Z,50.50
2019-01-23T08:31:24.995Z,50.57
2019-01-23T08:32:28.551Z,50.52
2019-01-23T08:33:32.129Z,50.51
2019-01-23T08:34:35.802Z,50.41
2019-01-23T08:35:39.262Z,50.44
2019-01-23T08:36:42.746Z,50.36
2019-01-23T08:37:46.611Z,50.35
2019-01-23T08:38:50.230Z,50.27
2019-01-23T08:39:53.803Z,50.22
2019-01-23T08:40:57.878Z,50.25
2019-01-23T08:42:01.429Z,50.30
2019-01-23T08:43:05.869Z,50.33
2019-01-23T08:44:09.439Z,50.42
2019-01-23T08:45:14.536Z,50.42
2019-01-23T08:46:18.141Z,50.50
2019-01-23T08:47:21.647Z,50.55
2019-01-23T08:48:25.211Z,50.61
2019-01-23T08:49:28.871Z,50.67
2019-01-23T08:50:38.110Z,50.74
2019-01-23T08:51:41.666Z,50.73
2019-01-23T08:52:45.179Z,50.71
2019-01-23T08:53:48.639Z,50.69
2019-01-23T08:54:52.258Z,50.66
2019-01-23T08:55:55.835Z,50.67
2019-01-23T08:56:59.360Z,50.59
2019-01-23T08:58:03.008Z,50.54
2019-01-23T08:59:06.624Z,50.42
2019-01-23T09:00:13.406Z,50.39
2019-01-23T09:01:16.909Z,50.39
2019-01-23T09:02:20.559Z,50.43
2019-01-23T09:03:24.192Z,50.46
2019-01-23T09:04:27.757Z,50.53
2019-01-23T09:05:31.266Z,50.52
2019-01-23T09:06:34.768Z,50.50
2019-01-23T09:07:38.400Z,50.58
2019-01-23T09:08:41.963Z,50.64
2019-01-23T09:09:45.531Z,50.71
2019-01-23T09:10:49.186Z,50.71
2019-01-23T09:11:52.817Z,50.79
2019-01-23T09:12:56.305Z,50.85
2019-01-23T09:13:59.929Z,50.76
2019-01-23T09:15:04.039Z,50.77
2019-01-23T09:16:07.628Z,50.82
2019-01-23T09:17:11.293Z,50.82
2019-01-23T09:18:14.879Z,50.73
2019-01-23T09:19:18.500Z,50.76
2019-01-23T09:20:23.024Z,50.64
2019-01-23T09:21:26.630Z,50.62
2019-01-23T09:22:30.212Z,50.49
2019-01-23T09:23:33.916Z,50.56
2019-01-23T09:24:37.418Z,50.58
2019-01-23T09:25:41.040Z,50.69
2019-01-23T09:26:44.560Z,50.70
2019-01-23T09:27:48.040Z,50.67
2019-01-23T09:28:51.595Z,50.78
2019-01-23T09:29:55.088Z,50.85
2019-01-23T09:31:01.611Z,50.85
2019-01-23T09:32:35.337Z,50.83
2019-01-23T09:33:56.978Z,50.89
2019-01-23T09:35:03.509Z,50.86
2019-01-23T09:36:33.948Z,50.85
2019-01-23T09:37:58.384Z,50.86
2019-01-23T09:39:30.210Z,50.79
2019-01-23T09:40:36.786Z,50.67
2019-01-23T09:41:48.541Z,50.68
2019-01-23T09:43:06.369Z,50.69
2019-01-23T09:44:28.003Z,50.67
2019-01-23T09:45:37.328Z,50.70
2019-01-23T09:46:52.649Z,50.69
2019-01-23T09:48:07.821Z,50.74
2019-01-23T09:49:16.938Z,50.74
2019-01-23T09:50:23.475Z,50.82
2019-01-23T09:51:46.119Z,50.87
2019-01-23T09:52:52.733Z,50.90
2019-01-23T09:54:02.165Z,51.03
2019-01-23T09:55:09.036Z,51.03
2019-01-23T09:56:13.311Z,51.08
2019-01-23T09:57:16.895Z,51.11
2019-01-23T09:58:20.419Z,50.99
2019-01-23T09:59:23.932Z,50.98
2019-01-23T10:00:31.807Z,50.93
2019-01-23T10:01:34.422Z,50.95
2019-01-23T10:02:37.913Z,50.96
2019-01-23T10:03:41.487Z,50.97
2019-01-23T10:04:45.036Z,51.00
2019-01-23T10:05:48.596Z,51.03
2019-01-23T10:06:52.215Z,51.02
2019-01-23T10:07:55.744Z,51.00
2019-01-23T10:08:59.344Z,51.03
2019-01-23T10:10:02.928Z,51.09
2019-01-23T10:11:06.583Z,51.16
2019-01-23T10:12:10.063Z,51.16
2019-01-23T10:13:13.641Z,51.21
2019-01-23T10:14:17.211Z,51.25
2019-01-23T10:15:24.060Z,51.23
2019-01-23T10:16:27.568Z,51.27
2019-01-23T10:17:31.272Z,51.25
2019-01-23T10:18:34.908Z,51.21
2019-01-23T10:19:38.438Z,51.19
2019-01-23T10:20:41.981Z,51.17
2019-01-23T10:21:45.696Z,51.13
2019-01-23T10:22:49.338Z,51.12
2019-01-23T10:23:52.872Z,51.07
2019-01-23T10:24:56.410Z,51.03
2019-01-23T10:26:00.018Z,51.09
2019-01-23T10:27:03.533Z,51.05
2019-01-23T10:28:07.197Z,51.09
2019-01-23T10:29:10.668Z,51.18
2019-01-23T10:30:15.669Z,51.20
2019-01-23T10:31:19.137Z,51.23
2019-01-23T10:32:22.687Z,51.32
2019-01-23T10:33:26.207Z,51.29
2019-01-23T10:34:29.755Z,51.25
2019-01-23T10:35:33.300Z,51.30
2019-01-23T10:36:36.883Z,51.28
2019-01-23T10:37:40.507Z,51.24
2019-01-23T10:38:44.083Z,51.25
2019-01-23T10:39:47.641Z,51.21
2019-01-23T10:40:52.423Z,51.24
2019-01-23T10:41:56.056Z,51.20
2019-01-23T10:42:59.665Z,51.12
2019-01-23T10:44:03.254Z,51.07
2019-01-23T10:45:09.125Z,51.05
2019-01-23T10:46:12.714Z,51.02
2019-01-23T10:47:16.257Z,51.00
2019-01-23T10:48:19.946Z,51.03
2019-01-23T10:49:23.525Z,51.08
2019-01-23T10:50:27.086Z,51.07
2019-01-23T10:51:30.592Z,51.11
2019-01-23T10:52:34.159Z,51.14
2019-01-23T10:53:37.628Z,51.20
2019-01-23T10:54:41.272Z,51.27
2019-01-23T10:55:44.900Z,51.28
2019-01-23T10:56:48.543Z,51.21
2019-01-23T10:57:52.188Z,51.20
2019-01-23T10:58:55.729Z,51.17
2019-01-23T10:59:59.328Z,51.16
2019-01-23T11:01:02.865Z,51.16
2019-01-23T11:02:06.507Z,51.13
2019-01-23T11:03:10.763Z,51.11
2019-01-23T11:04:14.435Z,51.12
2019-01-23T11:05:20.606Z,51.09
2019-01-23T11:06:24.201Z,51.10
2019-01-23T11:07:27.673Z,51.15
2019-01-23T11:08:31.187Z,51.14
2019-01-23T11:09:34.823Z,51.17
2019-01-23T11:10:38.381Z,51.24
2019-01-23T11:11:42.036Z,51.30
2019-01-23T11:12:45.580Z,51.34
2019-01-23T11:13:49.101Z,51.37
2019-01-23T11:14:52.684Z,51.42
2019-01-23T11:15:57.604Z,51.51
2019-01-23T11:17:01.403Z,51.55
2019-01-23T11:18:06.108Z,51.62
2019-01-23T11:19:09.737Z,51.68
2019-01-23T11:20:15.989Z,51.77
2019-01-23T11:21:19.635Z,51.79
2019-01-23T11:22:26.799Z,51.84
2019-01-23T11:23:30.773Z,51.89
2019-01-23T11:24:34.323Z,51.96
2019-01-23T11:25:37.893Z,51.97
2019-01-23T11:26:41.454Z,51.98
2019-01-23T11:27:45.671Z,51.99
2019-01-23T11:28:49.182Z,51.91
2019-01-23T11:29:52.721Z,51.81
2019-01-23T11:30:56.237Z,51.77
2019-01-23T11:31:59.946Z,51.62
2019-01-23T11:33:03.510Z,51.46
2019-01-23T11:34:07.107Z,51.42
2019-01-23T11:35:11.038Z,51.42
2019-01-23T11:36:14.585Z,51.27
2019-01-23T11:37:18.165Z,51.27
2019-01-23T11:38:21.714Z,51.28
2019-01-23T11:39:25.408Z,51.22
2019-01-23T11:40:31.046Z,51.18
2019-01-23T11:41:34.661Z,51.22
2019-01-23T11:42:38.340Z,51.20
2019-01-23T11:43:41.956Z,51.20
2019-01-23T11:44:45.513Z,51.27
2019-01-23T11:45:49.678Z,51.32
2019-01-23T11:46:53.217Z,51.39
2019-01-23T11:47:56.950Z,51.33
2019-01-23T11:49:00.516Z,51.39
2019-01-23T11:50:05.865Z,51.41
2019-01-23T11:51:09.425Z,51.38
2019-01-23T11:52:12.982Z,51.29
2019-01-23T11:53:16.564Z,51.25
2019-01-23T11:54:20.060Z,51.24
2019-01-23T11:55:23.649Z,51.26
2019-01-23T11:56:27.288Z,51.28
2019-01-23T11:57:30.762Z,51.26
2019-01-23T11:58:34.418Z,51.20
2019-01-23T11:59:37.981Z,51.18
2019-01-23T12:00:41.701Z,51.20
2019-01-23T12:01:45.398Z,51.27
2019-01-23T12:02:49.034Z,51.26
2019-01-23T12:03:52.599Z,51.32
2019-01-23T12:04:56.180Z,51.40
2019-01-23T12:05:59.856Z,51.42
2019-01-23T12:07:03.416Z,51.48
2019-01-23T12:08:07.070Z,51.48
2019-01-23T12:09:10.922Z,51.51
2019-01-23T12:10:17.335Z,51.54
2019-01-23T12:11:20.939Z,51.46
2019-01-23T12:12:24.427Z,51.46
2019-01-23T12:13:28.118Z,51.38
2019-01-23T12:14:31.624Z,51.37
2019-01-23T12:15:40.766Z,51.38
2019-01-23T12:16:40.519Z,51.38
2019-01-23T12:17:44.164Z,51.43
2019-01-23T12:18:47.843Z,51.44
2019-01-23T12:19:51.367Z,51.50
2019-01-23T12:20:55.135Z,51.51
2019-01-23T12:22:00.275Z,51.51
2019-01-23T12:23:04.115Z,51.55
2019-01-23T12:24:07.843Z,51.60
2019-01-23T12:25:12.582Z,51.67
2019-01-23T12:26:16.434Z,51.68
2019-01-23T12:27:20.179Z,51.69
2019-01-23T12:28:23.779Z,51.70
2019-01-23T12:29:27.446Z,51.74
2019-01-23T12:30:33.591Z,51.73
2019-01-23T12:31:37.256Z,51.70
2019-01-23T12:32:40.925Z,51.66
2019-01-23T12:33:44.558Z,51.57
2019-01-23T12:34:48.141Z,51.53
2019-01-23T12:35:51.719Z,51.49
2019-01-23T12:36:56.114Z,51.48
2019-01-23T12:37:59.716Z,51.43
2019-01-23T12:39:05.253Z,51.44
2019-01-23T12:40:12.780Z,51.45
2019-01-23T12:41:16.381Z,51.50
2019-01-23T12:42:19.878Z,51.57
2019-01-23T12:43:23.500Z,51.58
2019-01-23T12:44:27.198Z,51.59
2019-01-23T12:45:30.848Z,51.63
2019-01-23T12:46:34.527Z,51.64
2019-01-23T12:47:38.100Z,51.69
2019-01-23T12:48:41.580Z,51.73
2019-01-23T12:49:45.529Z,51.68
2019-01-23T12:50:49.200Z,51.69
2019-01-23T12:51:52.798Z,51.62
2019-01-23T12:52:56.393Z,51.57
2019-01-23T12:54:01.052Z,51.37
2019-01-23T12:55:05.828Z,49.56
2019-01-23T12:56:09.470Z,48.72
2019-01-23T12:57:13.064Z,48.34
2019-01-23T12:58:16.707Z,48.02
2019-01-23T12:59:20.252Z,47.81
2019-01-23T13:00:26.210Z,47.50
2019-01-23T13:01:29.919Z,47.40
2019-01-23T13:02:33.583Z,47.26
2019-01-23T13:03:37.211Z,47.32
2019-01-23T13:04:40.846Z,47.85
2019-01-23T13:05:44.535Z,47.55
2019-01-23T13:06:48.181Z,47.27
2019-01-23T13:07:52.135Z,47.20
2019-01-23T13:08:55.816Z,47.15
2019-01-23T13:09:59.538Z,47.26
2019-01-23T13:11:03.273Z,47.35
2019-01-23T13:12:07.009Z,47.55
2019-01-23T13:13:10.716Z,47.53
2019-01-23T13:14:14.320Z,47.58
2019-01-23T13:15:22.576Z,47.51
2019-01-23T13:16:26.261Z,47.41
2019-01-23T13:17:29.834Z,47.32
2019-01-23T13:18:33.404Z,47.41
2019-01-23T13:19:37.064Z,47.41
2019-01-23T13:20:40.611Z,47.39
2019-01-23T13:21:44.422Z,47.46
2019-01-23T13:22:48.193Z,47.58
2019-01-23T13:23:53.187Z,47.73
2019-01-23T13:24:56.793Z,47.97
2019-01-23T13:26:00.477Z,48.14
2019-01-23T13:27:04.446Z,48.17
2019-01-23T13:28:08.002Z,48.25
2019-01-23T13:29:11.575Z,48.32
2019-01-23T13:30:20.107Z,48.31
2019-01-23T13:31:23.595Z,48.34
2019-01-23T13:32:27.225Z,48.46
2019-01-23T13:33:30.991Z,48.47
2019-01-23T13:34:34.676Z,48.37
2019-01-23T13:35:38.924Z,48.29
2019-01-23T13:36:42.649Z,48.20
2019-01-23T13:37:46.271Z,48.15
2019-01-23T13:38:49.830Z,48.05
2019-01-23T13:39:53.319Z,48.08
2019-01-23T13:40:56.823Z,48.07
2019-01-23T13:42:00.573Z,48.05
2019-01-23T13:43:05.196Z,48.03
2019-01-23T13:44:08.771Z,48.01
2019-01-23T13:45:13.183Z,47.94
2019-01-23T13:46:18.263Z,47.99